Time;durP1;ratioP1;P1;durP2;ratioP2;P2;SDS_P1;SDS_P2;PMS_P1;PMS_P2;Temp;Humidity;BMP_temperature;BMP_pressure;BME280_temperature;BME280_humidity;BME280_pressure;Samples;Min_cycle;Max_cycle;Signal;HPM_P1;HPM_P2
2024/01/31 00:00:24;;;;;;;0.82;0.50;;;5.80;99.90;;;;;;4964832;28;20057;-77
2024/01/31 00:02:49;;;;;;;3.35;0.73;;;5.80;99.90;;;;;;4968752;28;20086;-78
2024/01/31 00:05:15;;;;;;;4.47;1.42;;;5.80;99.90;;;;;;4984319;28;20042;-77
2024/01/31 00:07:43;;;;;;;5.25;0.85;;;5.80;99.90;;;;;;4984306;28;20051;-77
2024/01/31 00:10:09;;;;;;;1.20;0.90;;;5.80;99.90;;;;;;4987247;28;20042;-78
2024/01/31 00:12:34;;;;;;;1.13;0.60;;;5.80;99.90;;;;;;4960096;28;20051;-75
2024/01/31 00:15:00;;;;;;;0.85;0.60;;;5.70;99.90;;;;;;4969925;28;20061;-76
2024/01/31 00:17:26;;;;;;;0.80;0.40;;;5.70;99.90;;;;;;4967307;28;20509;-78
2024/01/31 00:19:52;;;;;;;2.47;0.68;;;5.70;99.90;;;;;;4968825;28;20081;-77
2024/01/31 00:22:17;;;;;;;0.95;0.13;;;5.70;99.90;;;;;;4971198;28;20047;-77
2024/01/31 00:24:43;;;;;;;1.05;0.17;;;5.70;99.90;;;;;;4968366;28;20054;-77
2024/01/31 00:27:09;;;;;;;0.22;0.17;;;5.70;99.90;;;;;;4968808;28;20113;-77
2024/01/31 00:29:35;;;;;;;3.40;1.00;;;5.80;99.90;;;;;;4950678;28;20050;-77
2024/01/31 00:32:00;;;;;;;1.27;0.77;;;5.80;99.90;;;;;;4969329;28;20408;-77
2024/01/31 00:34:26;;;;;;;1.45;0.25;;;5.80;99.90;;;;;;4967384;28;20046;-76
2024/01/31 00:36:52;;;;;;;1.13;0.60;;;5.80;99.90;;;;;;4954368;28;20043;-77
2024/01/31 00:39:20;;;;;;;0.65;0.20;;;5.80;99.90;;;;;;4962308;28;20453;-76
2024/01/31 00:41:47;;;;;;;1.33;0.50;;;5.70;99.90;;;;;;4952934;28;20452;-77
2024/01/31 00:44:13;;;;;;;4.53;0.38;;;5.80;99.90;;;;;;4960348;28;20752;-77
2024/01/31 00:46:42;;;;;;;0.60;0.60;;;5.80;99.90;;;;;;4951513;28;20042;-77
2024/01/31 00:49:08;;;;;;;0.85;0.50;;;5.80;99.90;;;;;;4969445;28;20046;-77
2024/01/31 00:51:34;;;;;;;0.30;0.30;;;5.70;99.90;;;;;;4987549;28;20048;-77
2024/01/31 00:54:00;;;;;;;0.70;0.25;;;5.70;99.90;;;;;;4958695;28;20050;-77
2024/01/31 00:56:25;;;;;;;0.73;0.40;;;5.70;99.90;;;;;;4962749;28;20117;-76
2024/01/31 00:58:51;;;;;;;1.52;0.88;;;5.70;99.90;;;;;;4957478;28;20125;-76
2024/01/31 01:01:16;;;;;;;2.25;0.32;;;5.60;99.90;;;;;;4986754;28;20050;-77
2024/01/31 01:03:43;;;;;;;0.90;0.40;;;5.60;99.90;;;;;;4985925;28;20574;-76
2024/01/31 01:06:09;;;;;;;0.52;0.52;;;5.60;99.90;;;;;;4962870;28;20039;-77
2024/01/31 01:08:34;;;;;;;1.13;0.52;;;5.50;99.90;;;;;;4985228;28;20042;-77
2024/01/31 01:11:00;;;;;;;1.02;0.30;;;5.50;99.90;;;;;;4959370;28;20057;-77
2024/01/31 01:13:25;;;;;;;0.73;0.40;;;5.40;99.90;;;;;;4986253;28;20540;-77
2024/01/31 01:15:51;;;;;;;0.65;0.28;;;5.40;99.90;;;;;;4948783;29;20053;-75
2024/01/31 01:18:16;;;;;;;2.05;0.68;;;5.40;99.90;;;;;;4947430;29;20786;-77
2024/01/31 01:20:42;;;;;;;0.20;0.20;;;5.40;99.90;;;;;;4947763;29;20062;-77
2024/01/31 01:23:07;;;;;;;0.82;0.75;;;5.40;99.90;;;;;;4947401;29;20106;-77
2024/01/31 01:25:33;;;;;;;0.75;0.30;;;5.40;99.90;;;;;;4948328;28;20082;-77
2024/01/31 01:27:59;;;;;;;2.33;0.63;;;5.40;99.90;;;;;;4946383;29;20050;-76
2024/01/31 01:30:24;;;;;;;0.40;0.15;;;5.30;99.90;;;;;;4946927;29;20049;-77
2024/01/31 01:32:50;;;;;;;1.00;0.43;;;5.30;99.90;;;;;;4947472;29;20086;-76
2024/01/31 01:35:16;;;;;;;2.35;0.60;;;5.30;99.90;;;;;;4948726;28;20414;-77
2024/01/31 01:37:41;;;;;;;1.80;0.95;;;5.30;99.90;;;;;;4948549;28;20051;-78
2024/01/31 01:40:08;;;;;;;0.45;0.10;;;5.20;99.90;;;;;;4947077;29;20054;-77
2024/01/31 01:42:40;;;;;;;1.27;0.68;;;5.20;99.90;;;;;;4947062;29;20047;-77
2024/01/31 01:45:06;;;;;;;0.38;0.38;;;5.20;99.90;;;;;;4947298;29;20086;-77
2024/01/31 01:47:32;;;;;;;0.47;0.35;;;5.20;99.90;;;;;;4948348;28;20046;-77
2024/01/31 01:49:57;;;;;;;0.40;0.35;;;5.10;99.90;;;;;;4946365;29;20283;-77
2024/01/31 01:52:25;;;;;;;1.95;0.60;;;5.10;99.90;;;;;;4946765;29;20375;-77
2024/01/31 01:54:50;;;;;;;1.15;0.45;;;5.10;99.90;;;;;;4947502;29;20183;-77
2024/01/31 01:57:16;;;;;;;0.32;0.32;;;5.10;99.90;;;;;;4962627;28;20115;-77
2024/01/31 01:59:42;;;;;;;1.95;0.40;;;5.10;99.90;;;;;;4946170;29;20047;-76
2024/01/31 02:02:08;;;;;;;1.15;0.63;;;5.10;99.90;;;;;;4947050;29;20445;-77
2024/01/31 02:04:34;;;;;;;1.65;0.28;;;5.10;99.90;;;;;;4947845;28;20541;-77
2024/01/31 02:07:00;;;;;;;1.23;0.30;;;5.10;99.90;;;;;;4947786;28;20039;-77
2024/01/31 02:09:26;;;;;;;1.17;0.40;;;5.10;99.90;;;;;;4946824;29;20047;-77
2024/01/31 02:11:52;;;;;;;0.63;0.40;;;5.10;99.90;;;;;;4946918;29;20054;-77
2024/01/31 02:14:18;;;;;;;0.63;0.35;;;5.10;99.90;;;;;;4953580;28;20059;-77
2024/01/31 02:16:44;;;;;;;0.60;0.40;;;5.10;99.90;;;;;;4973071;28;20080;-77
2024/01/31 02:19:10;;;;;;;19.23;1.05;;;5.10;99.90;;;;;;4972898;28;20117;-77
2024/01/31 02:21:39;;;;;;;1.38;0.47;;;5.10;99.90;;;;;;4966917;28;20485;-77
2024/01/31 02:24:05;;;;;;;1.00;0.20;;;5.10;99.90;;;;;;4986404;28;20050;-75
2024/01/31 02:26:30;;;;;;;0.85;0.28;;;5.10;99.90;;;;;;4985629;28;20602;-77
2024/01/31 02:28:56;;;;;;;2.08;1.15;;;5.10;99.90;;;;;;4973340;28;20049;-77
2024/01/31 02:31:21;;;;;;;0.47;0.45;;;5.10;99.90;;;;;;4966202;28;20057;-77
2024/01/31 02:33:47;;;;;;;0.28;0.10;;;5.10;99.90;;;;;;4976102;28;20053;-77
2024/01/31 02:36:13;;;;;;;0.82;0.45;;;5.10;99.90;;;;;;4986341;28;20046;-76
2024/01/31 02:38:38;;;;;;;0.20;0.20;;;5.10;99.90;;;;;;4984918;28;20077;-77
2024/01/31 02:41:04;;;;;;;2.17;0.22;;;5.10;99.90;;;;;;4965698;28;20047;-77
2024/01/31 02:43:29;;;;;;;0.63;0.35;;;5.10;99.90;;;;;;4971839;28;20050;-77
2024/01/31 02:45:55;;;;;;;0.32;0.32;;;5.10;99.90;;;;;;4937261;28;20062;-77
2024/01/31 02:48:20;;;;;;;0.38;0.38;;;5.10;99.90;;;;;;4960054;28;20497;-75
2024/01/31 02:50:46;;;;;;;0.75;0.28;;;5.10;99.90;;;;;;4984397;28;20039;-77
2024/01/31 02:53:11;;;;;;;0.90;0.90;;;5.10;99.90;;;;;;4968411;28;20477;-76
2024/01/31 02:55:37;;;;;;;0.35;0.30;;;5.10;99.90;;;;;;4968649;28;20401;-76
2024/01/31 02:58:03;;;;;;;0.20;0.20;;;5.10;99.90;;;;;;4967613;28;20050;-77
2024/01/31 03:00:28;;;;;;;0.57;0.30;;;5.10;99.90;;;;;;4968286;28;20047;-75
2024/01/31 03:02:54;;;;;;;0.60;0.60;;;5.00;99.90;;;;;;4969347;28;20441;-77
2024/01/31 03:05:20;;;;;;;0.73;0.17;;;5.10;99.90;;;;;;4968925;28;20046;-77
2024/01/31 03:07:46;;;;;;;0.57;0.35;;;5.00;99.90;;;;;;4968369;28;20042;-76
2024/01/31 03:10:12;;;;;;;2.35;0.50;;;5.10;99.90;;;;;;4962041;28;20043;-77
2024/01/31 03:12:37;;;;;;;3.20;1.00;;;5.10;99.90;;;;;;4979814;28;20058;-77
2024/01/31 03:15:04;;;;;;;0.22;0.20;;;5.10;99.90;;;;;;4967957;28;20046;-76
2024/01/31 03:17:35;;;;;;;0.98;0.20;;;5.10;99.90;;;;;;4984487;28;20289;-77
2024/01/31 03:20:03;;;;;;;1.65;0.28;;;5.10;99.90;;;;;;4968489;28;20081;-77
2024/01/31 03:22:29;;;;;;;0.28;0.20;;;5.10;99.90;;;;;;4968265;28;20046;-77
2024/01/31 03:24:54;;;;;;;1.25;0.75;;;5.10;99.90;;;;;;4956712;28;20528;-77
2024/01/31 03:27:20;;;;;;;0.73;0.63;;;5.10;99.90;;;;;;4968124;28;20050;-76
2024/01/31 03:29:45;;;;;;;2.28;0.10;;;5.10;99.90;;;;;;4961538;28;20078;-76
2024/01/31 03:32:11;;;;;;;1.10;0.52;;;5.20;99.90;;;;;;4967804;28;20057;-77
2024/01/31 03:34:36;;;;;;;0.30;0.30;;;5.20;99.90;;;;;;4976100;28;20046;-76
2024/01/31 03:37:02;;;;;;;0.30;0.30;;;5.20;99.90;;;;;;4950828;28;20050;-76
2024/01/31 03:39:28;;;;;;;0.17;0.17;;;5.20;99.90;;;;;;4969980;28;20043;-77
2024/01/31 03:41:54;;;;;;;0.47;0.30;;;5.20;99.90;;;;;;4971591;28;20073;-77
2024/01/31 03:44:20;;;;;;;3.55;0.32;;;5.20;99.90;;;;;;4984578;28;20039;-76
2024/01/31 03:46:45;;;;;;;1.75;0.75;;;5.20;99.90;;;;;;4952091;28;20039;-77
2024/01/31 03:49:11;;;;;;;1.55;0.47;;;5.20;99.90;;;;;;4952688;28;20085;-77
2024/01/31 03:51:37;;;;;;;0.65;0.28;;;5.20;99.90;;;;;;4984941;28;20068;-75
2024/01/31 03:54:02;;;;;;;0.35;0.20;;;5.20;99.90;;;;;;4982426;28;20473;-77
2024/01/31 03:56:28;;;;;;;0.32;0.20;;;5.20;99.90;;;;;;4970451;28;20102;-76
2024/01/31 03:58:53;;;;;;;1.20;0.75;;;5.20;99.90;;;;;;4968506;28;20043;-77
2024/01/31 04:01:19;;;;;;;0.75;0.40;;;5.20;99.90;;;;;;4957693;28;20047;-77
2024/01/31 04:03:45;;;;;;;6.55;1.17;;;5.20;99.90;;;;;;4952081;28;20129;-76
2024/01/31 04:06:11;;;;;;;0.70;0.70;;;5.20;99.90;;;;;;4969805;28;20401;-78
2024/01/31 04:08:37;;;;;;;1.70;1.05;;;5.20;99.90;;;;;;4952225;28;20051;-77
2024/01/31 04:11:03;;;;;;;0.30;0.30;;;5.20;99.90;;;;;;4951923;28;20544;-76
2024/01/31 04:13:29;;;;;;;0.57;0.40;;;5.20;99.90;;;;;;4975904;28;20448;-76
2024/01/31 04:15:55;;;;;;;0.90;0.73;;;5.20;99.90;;;;;;4955972;28;20053;-77
2024/01/31 04:18:21;;;;;;;4.38;1.17;;;5.20;99.90;;;;;;4969574;28;20070;-76
2024/01/31 04:20:46;;;;;;;0.57;0.57;;;5.20;99.90;;;;;;4980966;28;20493;-77
2024/01/31 04:23:12;;;;;;;1.02;0.47;;;5.20;99.90;;;;;;4951722;28;20054;-76
2024/01/31 04:25:37;;;;;;;0.57;0.57;;;5.20;99.90;;;;;;4951561;28;20085;-76
2024/01/31 04:28:03;;;;;;;6.70;0.68;;;5.20;99.90;;;;;;4963036;28;20046;-77
2024/01/31 04:30:29;;;;;;;1.80;0.52;;;5.20;99.90;;;;;;4951511;28;20080;-77
2024/01/31 04:32:54;;;;;;;0.80;0.60;;;5.20;99.90;;;;;;4963564;28;20501;-77
2024/01/31 04:35:20;;;;;;;1.48;0.60;;;5.20;99.90;;;;;;4969503;28;20465;-76
2024/01/31 04:37:46;;;;;;;1.85;0.75;;;5.30;99.90;;;;;;4959417;28;20077;-77
2024/01/31 04:40:12;;;;;;;1.08;0.43;;;5.20;99.90;;;;;;4972754;28;20101;-76
2024/01/31 04:42:38;;;;;;;2.20;0.30;;;5.20;99.90;;;;;;4969301;28;20046;-77
2024/01/31 04:45:05;;;;;;;1.83;0.70;;;5.20;99.90;;;;;;4968626;28;20046;-77
2024/01/31 04:47:31;;;;;;;0.65;0.57;;;5.20;99.90;;;;;;4961386;28;20050;-76
2024/01/31 04:49:57;;;;;;;1.35;0.65;;;5.20;99.90;;;;;;4966740;28;20046;-77
2024/01/31 04:52:23;;;;;;;3.78;0.70;;;5.20;99.90;;;;;;4984770;28;20559;-77
2024/01/31 04:54:50;;;;;;;1.27;0.35;;;5.10;99.90;;;;;;4951684;28;20047;-77
2024/01/31 04:57:16;;;;;;;3.78;0.70;;;5.10;99.90;;;;;;4950563;28;20536;-76
2024/01/31 04:59:42;;;;;;;5.25;0.90;;;5.10;99.90;;;;;;4951273;28;20051;-77
2024/01/31 05:02:08;;;;;;;1.98;0.80;;;5.00;99.90;;;;;;4987972;28;20529;-77
2024/01/31 05:04:35;;;;;;;8.52;1.65;;;5.00;99.90;;;;;;4984264;28;20121;-77
2024/01/31 05:07:00;;;;;;;1.75;0.65;;;5.00;99.90;;;;;;4983537;28;20114;-76
2024/01/31 05:09:26;;;;;;;0.65;0.47;;;5.00;99.90;;;;;;4967657;28;20606;-77
2024/01/31 05:11:51;;;;;;;1.50;0.85;;;4.90;99.90;;;;;;4951404;28;20405;-76
2024/01/31 05:14:18;;;;;;;0.50;0.50;;;4.90;99.90;;;;;;4947356;28;20481;-76
2024/01/31 05:16:43;;;;;;;1.98;1.05;;;4.90;99.90;;;;;;4956395;28;20634;-77
2024/01/31 05:19:12;;;;;;;0.60;0.30;;;4.90;99.90;;;;;;4957379;28;20070;-76
2024/01/31 05:21:49;;;;;;;2.17;0.60;;;4.80;99.90;;;;;;4950236;28;20039;-76
2024/01/31 05:24:15;;;;;;;2.55;0.75;;;4.80;99.90;;;;;;4952430;28;20042;-77
2024/01/31 05:26:42;;;;;;;1.23;0.50;;;4.70;99.90;;;;;;4962918;28;20074;-77
2024/01/31 05:29:08;;;;;;;1.13;0.40;;;4.70;99.90;;;;;;4949669;28;20055;-75
2024/01/31 05:31:34;;;;;;;1.38;0.80;;;4.70;99.90;;;;;;4959197;28;20050;-77
2024/01/31 05:34:00;;;;;;;0.50;0.45;;;4.60;99.90;;;;;;4948682;28;20070;-77
2024/01/31 05:36:25;;;;;;;4.28;1.17;;;4.60;99.90;;;;;;4955594;28;20054;-76
2024/01/31 05:38:51;;;;;;;0.32;0.28;;;4.60;99.90;;;;;;4956255;28;20502;-75
2024/01/31 05:41:16;;;;;;;0.10;0.10;;;4.60;99.90;;;;;;4952384;28;20043;-77
2024/01/31 05:43:42;;;;;;;3.05;0.15;;;4.50;99.90;;;;;;4956692;28;20046;-76
2024/01/31 05:46:08;;;;;;;2.88;0.75;;;4.50;99.90;;;;;;4951417;28;20450;-77
2024/01/31 05:48:33;;;;;;;2.08;1.17;;;4.50;99.90;;;;;;4967095;28;20077;-77
2024/01/31 05:50:59;;;;;;;2.00;0.47;;;4.50;99.90;;;;;;4966401;28;20047;-76
2024/01/31 05:53:24;;;;;;;1.60;0.40;;;4.50;99.90;;;;;;4955907;28;20525;-77
2024/01/31 05:55:50;;;;;;;2.20;1.17;;;4.50;99.90;;;;;;4965570;28;20559;-77
2024/01/31 05:58:17;;;;;;;0.45;0.35;;;4.40;99.90;;;;;;4958195;28;20043;-77
2024/01/31 06:00:44;;;;;;;1.25;0.70;;;4.40;99.90;;;;;;4953261;28;20558;-76
2024/01/31 06:03:10;;;;;;;2.85;1.27;;;4.40;99.90;;;;;;4967428;28;20047;-76
2024/01/31 06:05:36;;;;;;;0.45;0.45;;;4.30;99.90;;;;;;4956538;28;20054;-77
2024/01/31 06:08:02;;;;;;;0.55;0.55;;;4.30;99.90;;;;;;4948398;28;20135;-76
2024/01/31 06:10:28;;;;;;;0.73;0.70;;;4.30;99.90;;;;;;4946437;29;20567;-77
2024/01/31 06:12:54;;;;;;;0.60;0.60;;;4.30;99.90;;;;;;4947004;28;20047;-76
2024/01/31 06:15:20;;;;;;;1.23;0.70;;;4.30;99.90;;;;;;4946958;29;20051;-77
2024/01/31 06:17:46;;;;;;;2.80;2.05;;;4.30;99.90;;;;;;4956601;28;20043;-77
2024/01/31 06:20:12;;;;;;;7.88;0.90;;;4.30;99.90;;;;;;4965930;28;20042;-77
2024/01/31 06:22:37;;;;;;;0.73;0.73;;;4.20;99.90;;;;;;4965550;28;20046;-77
2024/01/31 06:25:04;;;;;;;2.13;0.93;;;4.20;99.90;;;;;;4966236;28;20130;-76
2024/01/31 06:27:29;;;;;;;2.78;1.08;;;4.20;99.90;;;;;;4962569;28;20057;-77
2024/01/31 06:29:55;;;;;;;0.75;0.65;;;4.30;99.90;;;;;;4960733;28;20054;-76
2024/01/31 06:32:29;;;;;;;2.90;1.70;;;4.20;99.90;;;;;;4957595;28;20047;-77
2024/01/31 06:34:55;;;;;;;0.43;0.30;;;4.20;99.90;;;;;;4949461;28;20057;-75
2024/01/31 06:37:20;;;;;;;0.50;0.35;;;4.20;99.90;;;;;;4960862;28;20039;-77
2024/01/31 06:39:46;;;;;;;2.65;0.50;;;4.20;99.90;;;;;;4952115;28;20532;-76
2024/01/31 06:42:12;;;;;;;3.08;1.95;;;4.20;99.90;;;;;;4959556;28;20053;-77
2024/01/31 06:44:37;;;;;;;1.38;0.68;;;4.20;99.90;;;;;;4954708;28;20085;-78
2024/01/31 06:47:05;;;;;;;0.73;0.65;;;4.20;99.90;;;;;;4947179;28;20500;-78
2024/01/31 06:49:31;;;;;;;2.92;0.68;;;4.20;99.90;;;;;;4958070;28;20175;-77
2024/01/31 06:51:56;;;;;;;1.08;0.60;;;4.20;99.90;;;;;;4959551;28;20525;-78
2024/01/31 06:54:22;;;;;;;2.55;0.30;;;4.20;99.90;;;;;;4960649;28;20654;-77
2024/01/31 06:56:47;;;;;;;6.85;0.82;;;4.20;99.90;;;;;;4957101;28;20039;-77
2024/01/31 06:59:13;;;;;;;27.77;2.15;;;4.30;99.90;;;;;;4956104;28;20047;-75
2024/01/31 07:01:38;;;;;;;2.58;1.40;;;4.30;99.90;;;;;;4954846;28;20890;-78
2024/01/31 07:04:04;;;;;;;0.68;0.60;;;4.30;99.90;;;;;;4962484;28;20118;-76
2024/01/31 07:06:29;;;;;;;1.23;0.75;;;4.30;99.90;;;;;;4947489;28;20113;-78
2024/01/31 07:08:55;;;;;;;1.23;0.98;;;4.40;99.90;;;;;;4958218;28;20584;-77
2024/01/31 07:11:21;;;;;;;1.20;1.10;;;4.40;99.90;;;;;;4958943;28;20089;-76
2024/01/31 07:13:46;;;;;;;2.58;1.27;;;4.40;99.90;;;;;;4958873;28;20046;-78
2024/01/31 07:16:12;;;;;;;1.00;0.93;;;4.40;99.90;;;;;;4972180;28;20564;-77
2024/01/31 07:18:41;;;;;;;0.95;0.90;;;4.50;99.90;;;;;;4986144;28;20041;-78
2024/01/31 07:21:08;;;;;;;1.35;0.63;;;4.50;99.90;;;;;;4988841;28;20579;-76
2024/01/31 07:23:35;;;;;;;1.92;1.63;;;4.50;99.90;;;;;;4982461;28;20050;-90
2024/01/31 07:26:00;;;;;;;2.47;1.65;;;4.50;99.90;;;;;;4985781;28;20057;-79
2024/01/31 07:28:26;;;;;;;0.95;0.95;;;4.50;99.90;;;;;;4984912;28;20121;-77
2024/01/31 07:30:52;;;;;;;2.53;1.17;;;4.50;99.90;;;;;;4977459;28;20121;-78
2024/01/31 07:33:19;;;;;;;1.05;1.05;;;4.50;99.90;;;;;;4961830;28;20101;-78
2024/01/31 07:35:44;;;;;;;2.83;0.90;;;4.50;99.90;;;;;;4969039;28;20061;-78
2024/01/31 07:38:10;;;;;;;4.38;1.38;;;4.50;99.90;;;;;;4951928;28;20149;-77
2024/01/31 07:40:36;;;;;;;1.38;1.27;;;4.50;99.90;;;;;;4969191;28;20385;-78
2024/01/31 07:43:02;;;;;;;1.50;0.75;;;4.60;99.90;;;;;;4967374;28;20051;-77
2024/01/31 07:45:27;;;;;;;2.42;0.85;;;4.60;99.90;;;;;;4969507;28;20465;-78
2024/01/31 07:47:53;;;;;;;1.88;1.48;;;4.60;99.90;;;;;;4980693;28;20053;-79
2024/01/31 07:50:19;;;;;;;1.75;0.70;;;4.60;99.90;;;;;;4972066;28;20667;-78
2024/01/31 07:52:44;;;;;;;1.63;1.52;;;4.60;99.90;;;;;;4971288;28;20125;-79
2024/01/31 07:55:11;;;;;;;1.00;0.70;;;4.60;99.90;;;;;;4970989;28;20072;-78
2024/01/31 07:57:36;;;;;;;0.82;0.73;;;4.60;99.90;;;;;;4970545;28;20450;-79
2024/01/31 08:00:06;;;;;;;0.50;0.50;;;4.60;99.90;;;;;;4974433;28;20038;-78
2024/01/31 08:02:32;;;;;;;1.85;1.30;;;4.60;99.90;;;;;;4951294;28;20035;-77
2024/01/31 08:04:58;;;;;;;1.55;1.08;;;4.60;99.90;;;;;;4967916;28;20093;-79
2024/01/31 08:07:24;;;;;;;5.30;1.45;;;4.60;99.90;;;;;;4952691;28;20043;-77
2024/01/31 08:09:50;;;;;;;3.25;1.27;;;4.60;99.90;;;;;;4980130;28;20057;-79
2024/01/31 08:12:15;;;;;;;2.13;0.80;;;4.70;99.90;;;;;;4950929;28;20043;-79
2024/01/31 08:14:41;;;;;;;3.08;2.38;;;4.70;99.90;;;;;;4983967;28;20412;-79
2024/01/31 08:17:07;;;;;;;1.00;1.00;;;4.70;99.90;;;;;;4970943;28;20043;-79
2024/01/31 08:19:34;;;;;;;1.30;1.20;;;4.70;99.90;;;;;;4988142;28;20046;-79
2024/01/31 08:22:00;;;;;;;1.48;1.13;;;4.70;99.90;;;;;;4971290;28;20400;-79
2024/01/31 08:24:25;;;;;;;2.35;1.52;;;4.70;99.90;;;;;;4969882;28;20054;-79
2024/01/31 08:26:51;;;;;;;1.67;0.95;;;4.80;99.90;;;;;;4972544;28;20125;-78
2024/01/31 08:29:17;;;;;;;1.60;1.20;;;4.80;99.90;;;;;;4951784;28;20505;-78
2024/01/31 08:31:42;;;;;;;2.05;1.95;;;4.80;99.90;;;;;;4968605;28;20039;-76
2024/01/31 08:34:09;;;;;;;6.28;2.58;;;4.80;99.90;;;;;;4967918;28;20038;-79
2024/01/31 08:36:35;;;;;;;2.50;2.10;;;4.80;99.90;;;;;;4951794;28;20425;-79
2024/01/31 08:39:01;;;;;;;3.72;2.20;;;4.80;99.90;;;;;;4968780;28;20039;-80
2024/01/31 08:41:27;;;;;;;1.85;1.60;;;4.90;99.90;;;;;;4951110;28;20105;-79
2024/01/31 08:43:52;;;;;;;2.38;1.98;;;4.90;99.90;;;;;;4968028;28;20556;-77
2024/01/31 08:46:18;;;;;;;3.45;1.85;;;4.90;99.90;;;;;;4963647;28;20051;-76
2024/01/31 08:48:43;;;;;;;2.80;2.28;;;5.00;99.90;;;;;;4967830;28;20046;-80
2024/01/31 08:51:09;;;;;;;3.53;3.05;;;5.00;99.90;;;;;;4977909;28;20069;-79
2024/01/31 08:53:34;;;;;;;1.77;1.67;;;5.00;99.90;;;;;;4986981;28;20038;-79
2024/01/31 08:56:00;;;;;;;5.00;2.70;;;5.10;99.90;;;;;;4969752;28;20050;-78
2024/01/31 08:58:26;;;;;;;2.88;2.15;;;5.10;99.90;;;;;;4985968;28;20402;-77
2024/01/31 09:00:52;;;;;;;2.80;2.58;;;5.10;99.90;;;;;;4977794;28;20046;-78
2024/01/31 09:03:18;;;;;;;4.03;2.22;;;5.10;99.90;;;;;;4986064;28;20093;-77
2024/01/31 09:05:44;;;;;;;2.10;1.92;;;5.20;99.90;;;;;;4969712;28;20124;-79
2024/01/31 09:08:09;;;;;;;2.13;1.73;;;5.20;99.90;;;;;;4969708;28;20042;-76
2024/01/31 09:10:35;;;;;;;5.82;3.30;;;5.20;99.90;;;;;;4969362;28;20575;-79
2024/01/31 09:13:01;;;;;;;6.20;3.20;;;5.20;99.90;;;;;;4969172;28;20826;-79
2024/01/31 09:15:27;;;;;;;3.03;2.72;;;5.30;99.90;;;;;;4978844;28;20078;-79
2024/01/31 09:17:52;;;;;;;3.38;3.08;;;5.30;99.90;;;;;;4950764;28;20047;-77
2024/01/31 09:20:18;;;;;;;3.05;2.63;;;5.30;99.90;;;;;;4968247;28;20039;-80
2024/01/31 09:22:44;;;;;;;3.63;2.38;;;5.40;99.90;;;;;;4987185;28;20046;-79
2024/01/31 09:25:14;;;;;;;3.97;2.42;;;5.40;99.90;;;;;;4969630;28;20049;-77
2024/01/31 09:27:40;;;;;;;4.85;2.83;;;5.40;99.90;;;;;;4968546;28;20046;-79
2024/01/31 09:30:07;;;;;;;3.42;2.53;;;5.40;99.90;;;;;;4987440;28;20050;-79
2024/01/31 09:32:32;;;;;;;4.80;2.80;;;5.40;99.90;;;;;;4968353;28;20057;-79
2024/01/31 09:34:58;;;;;;;3.30;2.05;;;5.40;99.90;;;;;;4967352;28;20050;-79
2024/01/31 09:37:24;;;;;;;4.28;2.22;;;5.40;99.90;;;;;;4949960;28;20050;-79
2024/01/31 09:39:54;;;;;;;4.82;2.83;;;5.50;99.90;;;;;;4950846;28;20055;-78
2024/01/31 09:42:19;;;;;;;4.53;3.47;;;5.50;99.90;;;;;;4949538;28;20058;-79
2024/01/31 09:44:45;;;;;;;2.72;1.80;;;5.50;99.90;;;;;;4950090;28;20034;-79
2024/01/31 09:47:13;;;;;;;4.03;2.75;;;5.50;99.90;;;;;;4950124;28;20131;-79
2024/01/31 09:49:38;;;;;;;2.88;2.05;;;5.50;99.90;;;;;;4949517;28;20046;-79
2024/01/31 09:52:05;;;;;;;3.53;2.28;;;5.60;99.90;;;;;;4967498;28;20498;-78
2024/01/31 09:54:31;;;;;;;4.32;2.15;;;5.60;99.90;;;;;;4967173;28;20054;-77
2024/01/31 09:56:57;;;;;;;4.95;2.45;;;5.60;99.90;;;;;;4966267;28;20038;-76
2024/01/31 09:59:24;;;;;;;3.85;2.92;;;5.70;99.90;;;;;;4950229;28;20043;-78
2024/01/31 10:01:55;;;;;;;4.25;2.42;;;5.70;99.90;;;;;;4981530;28;20046;-78
2024/01/31 10:04:20;;;;;;;5.40;2.42;;;5.70;99.90;;;;;;4958903;28;20046;-80
2024/01/31 10:06:46;;;;;;;4.30;2.80;;;5.80;99.90;;;;;;4950170;28;20375;-80
2024/01/31 10:09:13;;;;;;;4.88;2.90;;;5.80;99.90;;;;;;4967367;28;20137;-80
2024/01/31 10:11:44;;;;;;;5.65;3.25;;;5.80;99.90;;;;;;4968037;28;20060;-81
2024/01/31 10:14:11;;;;;;;3.60;2.80;;;5.80;99.90;;;;;;4969221;28;20063;-80
2024/01/31 10:16:37;;;;;;;2.60;2.25;;;5.90;99.90;;;;;;4986621;28;20072;-80
2024/01/31 10:19:03;;;;;;;6.90;3.10;;;5.90;99.90;;;;;;4969226;28;20509;-80
2024/01/31 10:21:29;;;;;;;3.70;1.98;;;5.90;99.90;;;;;;4969094;28;20480;-80
2024/01/31 10:23:59;;;;;;;3.17;2.05;;;5.90;99.90;;;;;;4974122;28;20043;-77
2024/01/31 10:26:28;;;;;;;5.82;3.22;;;5.90;99.90;;;;;;4963730;28;20122;-77
2024/01/31 10:28:55;;;;;;;3.90;3.15;;;5.90;99.90;;;;;;4968561;28;20436;-81
2024/01/31 10:31:21;;;;;;;4.85;2.65;;;5.90;99.90;;;;;;4975843;28;20081;-80
2024/01/31 10:33:49;;;;;;;3.05;2.33;;;6.00;99.90;;;;;;4968559;28;20085;-80
2024/01/31 10:36:16;;;;;;;3.22;2.35;;;6.00;99.90;;;;;;4970766;28;20078;-80
2024/01/31 10:38:43;;;;;;;4.00;2.35;;;6.00;99.90;;;;;;4966448;28;20086;-80
2024/01/31 10:41:10;;;;;;;6.00;2.55;;;6.00;99.90;;;;;;4959929;28;20565;-80
2024/01/31 10:43:37;;;;;;;3.67;1.95;;;6.00;99.90;;;;;;4967417;28;20580;-80
2024/01/31 10:46:03;;;;;;;1.83;1.73;;;6.00;99.90;;;;;;4957796;28;20084;-80
2024/01/31 10:48:28;;;;;;;3.13;2.10;;;6.00;99.90;;;;;;4961818;28;20054;-80
2024/01/31 10:50:56;;;;;;;2.15;1.85;;;6.00;99.90;;;;;;4973187;28;20449;-79
2024/01/31 10:53:23;;;;;;;3.13;1.63;;;6.10;99.90;;;;;;4957252;28;20047;-79
2024/01/31 10:55:51;;;;;;;3.20;2.05;;;6.10;99.90;;;;;;4982387;28;20145;-80
2024/01/31 10:58:16;;;;;;;3.90;2.33;;;6.10;99.90;;;;;;4974579;28;20057;-80
2024/01/31 11:00:49;;;;;;;3.83;2.30;;;6.10;99.90;;;;;;4970799;28;20613;-80
2024/01/31 11:03:17;;;;;;;;;;;6.10;99.90;;;;;;4985349;28;20473;-81
2024/01/31 11:05:43;;;;;;;3.78;2.72;;;6.10;99.90;;;;;;4981880;28;20399;-79
2024/01/31 11:08:19;;;;;;;3.22;1.63;;;6.20;99.90;;;;;;4969736;28;20046;-79
2024/01/31 11:10:44;;;;;;;4.30;2.58;;;6.20;99.90;;;;;;4986288;28;20039;-78
2024/01/31 11:13:10;;;;;;;4.65;2.45;;;6.20;99.90;;;;;;4980468;28;20078;-77
2024/01/31 11:15:36;;;;;;;2.05;1.90;;;6.20;99.90;;;;;;4990933;28;20050;-77
2024/01/31 11:18:09;;;;;;;2.47;1.77;;;6.20;99.90;;;;;;4981603;28;20038;-80
2024/01/31 11:20:38;;;;;;;3.78;1.63;;;6.20;99.90;;;;;;4960692;28;20049;-80
2024/01/31 11:23:03;;;;;;;2.38;2.15;;;6.20;99.90;;;;;;4984948;28;20121;-79
2024/01/31 11:25:37;;;;;;;3.83;1.98;;;6.20;99.90;;;;;;4979429;28;20465;-80
2024/01/31 11:28:08;;;;;;;3.45;1.83;;;6.20;99.90;;;;;;4973281;28;20114;-79
2024/01/31 11:30:34;;;;;;;3.30;1.83;;;6.30;99.90;;;;;;4964316;28;20058;-79
2024/01/31 11:33:03;;;;;;;2.85;1.85;;;6.20;99.90;;;;;;4969379;28;20050;-80
2024/01/31 11:35:29;;;;;;;3.80;2.33;;;6.30;99.90;;;;;;4970529;28;20112;-79
2024/01/31 11:37:56;;;;;;;3.33;2.20;;;6.30;99.90;;;;;;5010411;28;20041;-79
2024/01/31 11:40:22;;;;;;;1.73;1.60;;;6.30;99.90;;;;;;4965690;28;20053;-78
2024/01/31 11:42:49;;;;;;;3.67;1.88;;;6.30;99.90;;;;;;4971477;28;20046;-86
2024/01/31 11:45:15;;;;;;;2.00;1.90;;;6.30;99.90;;;;;;4968836;28;20038;-79
2024/01/31 11:47:44;;;;;;;2.35;1.83;;;6.30;99.90;;;;;;4979718;28;20043;-89
2024/01/31 11:50:10;;;;;;;2.58;1.48;;;6.40;99.90;;;;;;4962798;28;20047;-80
2024/01/31 11:52:39;;;;;;;2.30;1.30;;;6.40;99.90;;;;;;4955894;28;20053;-80
2024/01/31 11:55:11;;;;;;;2.85;1.67;;;6.40;99.90;;;;;;4960042;28;20066;-81
2024/01/31 11:57:37;;;;;;;3.00;2.13;;;6.40;99.90;;;;;;4963822;28;20126;-85
2024/01/31 12:00:07;;;;;;;2.75;1.80;;;6.40;99.90;;;;;;4961599;28;20050;-79
2024/01/31 12:02:33;;;;;;;4.28;2.80;;;6.40;99.90;;;;;;4979958;28;20053;-80
2024/01/31 12:04:58;;;;;;;2.33;1.90;;;6.40;99.90;;;;;;4958359;28;20098;-81
2024/01/31 12:07:24;;;;;;;2.30;1.40;;;6.50;99.90;;;;;;4983088;28;20054;-78
2024/01/31 12:09:50;;;;;;;4.57;2.70;;;6.50;99.90;;;;;;4977215;28;20177;-78
2024/01/31 12:12:16;;;;;;;3.83;1.95;;;6.50;99.90;;;;;;4947107;28;20058;-82
2024/01/31 12:14:42;;;;;;;1.02;1.00;;;6.50;99.90;;;;;;4957314;28;20816;-81
2024/01/31 12:17:21;;;;;;;1.70;1.20;;;6.50;99.90;;;;;;4955376;28;20110;-90
2024/01/31 12:19:48;;;;;;;1.92;1.20;;;6.50;99.90;;;;;;4976484;28;20449;-79
2024/01/31 12:22:18;;;;;;;3.25;1.83;;;6.50;99.90;;;;;;4985825;28;20038;-79
2024/01/31 12:24:45;;;;;;;1.55;1.45;;;6.60;99.90;;;;;;4976323;28;20078;-79
2024/01/31 12:27:16;;;;;;;4.53;2.22;;;6.60;99.90;;;;;;4947533;28;20038;-81
2024/01/31 12:29:46;;;;;;;3.05;2.28;;;6.60;99.90;;;;;;4959735;28;20055;-78
2024/01/31 12:32:12;;;;;;;4.35;2.60;;;6.60;99.90;;;;;;4959209;28;20121;-78
2024/01/31 12:34:38;;;;;;;5.15;2.67;;;6.60;99.90;;;;;;4968849;28;20616;-76
2024/01/31 12:37:03;;;;;;;6.03;2.30;;;6.60;99.90;;;;;;4951995;28;20050;-79
2024/01/31 12:39:29;;;;;;;4.65;2.17;;;6.70;99.90;;;;;;4984368;28;20054;-77
2024/01/31 12:41:55;;;;;;;2.70;1.65;;;6.70;99.90;;;;;;4973997;28;20082;-80
2024/01/31 12:44:20;;;;;;;3.58;2.53;;;6.70;99.90;;;;;;4985302;28;20045;-78
2024/01/31 12:46:46;;;;;;;4.63;2.25;;;6.70;99.90;;;;;;4976466;28;20508;-80
2024/01/31 12:49:12;;;;;;;2.42;1.73;;;6.70;99.90;;;;;;4976661;28;20489;-77
2024/01/31 12:51:37;;;;;;;3.67;2.10;;;6.70;99.90;;;;;;4969050;28;20397;-77